createdAt,value
2019-03-30T00:01:13.647Z,60.40
2019-03-30T00:03:41.910Z,60.40
2019-03-30T00:06:10.194Z,60.50
2019-03-30T00:08:38.461Z,60.40
2019-03-30T00:11:06.747Z,60.50
2019-03-30T00:13:35.364Z,60.60
2019-03-30T00:16:04.047Z,60.40
2019-03-30T00:18:32.307Z,60.50
2019-03-30T00:21:00.920Z,60.40
2019-03-30T00:23:29.378Z,60.50
2019-03-30T00:25:57.652Z,60.40
2019-03-30T00:28:26.250Z,60.50
2019-03-30T00:30:54.551Z,60.40
2019-03-30T00:33:22.815Z,60.50
2019-03-30T00:35:51.399Z,60.40
2019-03-30T00:38:19.690Z,60.40
2019-03-30T00:40:48.033Z,60.40
2019-03-30T00:43:16.632Z,60.40
2019-03-30T00:45:44.911Z,60.50
2019-03-30T00:48:13.197Z,60.40
2019-03-30T00:50:41.863Z,60.40
2019-03-30T00:53:10.131Z,60.30
2019-03-30T00:55:38.423Z,60.40
2019-03-30T00:58:06.755Z,60.40
2019-03-30T01:00:35.038Z,60.50
2019-03-30T01:03:03.294Z,60.50
2019-03-30T01:05:31.581Z,60.50
2019-03-30T01:08:00.287Z,60.50
2019-03-30T01:10:28.610Z,60.50
2019-03-30T01:12:56.883Z,60.40
2019-03-30T01:15:25.455Z,61.20
2019-03-30T01:17:54.043Z,60.40
2019-03-30T01:20:22.294Z,60.30
2019-03-30T01:22:50.563Z,60.30
2019-03-30T01:25:18.855Z,60.30
2019-03-30T01:27:47.210Z,60.30
2019-03-30T01:30:23.053Z,60.40
2019-03-30T01:32:45.679Z,60.20
2019-03-30T01:35:14.107Z,60.30
2019-03-30T01:37:43.046Z,60.30
2019-03-30T01:40:11.365Z,60.30
2019-03-30T01:42:39.635Z,60.20
2019-03-30T01:45:07.894Z,60.30
2019-03-30T01:47:36.186Z,60.20
2019-03-30T01:50:17.398Z,60.20
2019-03-30T01:52:37.512Z,60.20
2019-03-30T01:55:07.242Z,60.10
2019-03-30T01:57:35.804Z,60.10
2019-03-30T02:00:08.990Z,60.20
2019-03-30T02:02:37.268Z,60.10
2019-03-30T02:05:08.734Z,60.10
2019-03-30T02:07:37.011Z,60.10
2019-03-30T02:10:06.123Z,60.00
2019-03-30T02:12:34.383Z,60.00
2019-03-30T02:15:02.638Z,60.10
2019-03-30T02:17:31.260Z,60.00
2019-03-30T02:19:59.531Z,60.10
2019-03-30T02:22:27.805Z,60.10
2019-03-30T02:24:56.394Z,60.10
2019-03-30T02:27:24.679Z,60.10
2019-03-30T02:29:53.294Z,60.10
2019-03-30T02:32:21.614Z,60.10
2019-03-30T02:34:50.200Z,60.10
2019-03-30T02:37:18.849Z,60.10
2019-03-30T02:39:47.512Z,60.20
2019-03-30T02:42:15.870Z,60.20
2019-03-30T02:44:44.206Z,60.20
2019-03-30T02:47:12.469Z,60.10
2019-03-30T02:49:40.754Z,61.00
2019-03-30T02:52:09.007Z,60.10
2019-03-30T02:54:37.550Z,60.10
2019-03-30T02:57:05.825Z,60.10
2019-03-30T02:59:34.169Z,60.10
2019-03-30T03:02:02.685Z,60.20
2019-03-30T03:04:30.961Z,60.90
2019-03-30T03:06:59.236Z,60.10
2019-03-30T03:09:27.519Z,60.30
2019-03-30T03:11:55.848Z,60.30
2019-03-30T03:14:24.126Z,60.20
2019-03-30T03:16:52.396Z,60.20
2019-03-30T03:19:20.733Z,60.20
2019-03-30T03:21:48.991Z,60.20
2019-03-30T03:24:17.375Z,60.20
2019-03-30T03:26:45.640Z,60.10
2019-03-30T03:29:13.911Z,60.10
2019-03-30T03:31:42.180Z,60.00
2019-03-30T03:34:10.570Z,60.00
2019-03-30T03:36:39.202Z,60.10
2019-03-30T03:39:07.590Z,60.20
2019-03-30T03:41:36.272Z,60.10
2019-03-30T03:44:04.638Z,60.10
2019-03-30T03:46:33.235Z,60.10
2019-03-30T03:49:01.765Z,60.00
2019-03-30T03:51:30.416Z,60.00
2019-03-30T03:53:58.687Z,60.00
2019-03-30T03:56:27.374Z,60.00
2019-03-30T03:58:56.424Z,60.00
2019-03-30T04:01:24.678Z,60.00
2019-03-30T04:03:53.499Z,60.00
2019-03-30T04:06:22.127Z,59.90
2019-03-30T04:08:52.092Z,59.90
2019-03-30T04:11:20.431Z,59.90
2019-03-30T04:13:48.706Z,59.90
2019-03-30T04:16:16.994Z,59.90
2019-03-30T04:18:48.179Z,59.90
2019-03-30T04:21:15.673Z,59.90
2019-03-30T04:23:44.279Z,59.90
2019-03-30T04:26:12.690Z,59.90
2019-03-30T04:28:40.963Z,59.90
2019-03-30T04:31:09.315Z,60.00
2019-03-30T04:33:37.660Z,59.90
2019-03-30T04:36:05.940Z,59.90
2019-03-30T04:38:34.558Z,59.90
2019-03-30T04:41:03.231Z,59.90
2019-03-30T04:43:31.812Z,59.90
2019-03-30T04:46:00.092Z,59.90
2019-03-30T04:48:29.589Z,60.00
2019-03-30T04:50:58.131Z,60.10
2019-03-30T04:53:26.771Z,60.10
2019-03-30T04:55:55.363Z,60.10
2019-03-30T04:58:23.620Z,60.10
2019-03-30T05:00:52.216Z,60.10
2019-03-30T05:03:20.487Z,60.10
2019-03-30T05:05:49.065Z,60.10
2019-03-30T05:08:17.374Z,60.10
2019-03-30T05:10:46.016Z,60.10
2019-03-30T05:13:14.283Z,60.20
2019-03-30T05:15:42.876Z,60.20
2019-03-30T05:18:11.169Z,60.10
2019-03-30T05:20:39.435Z,60.10
2019-03-30T05:23:08.036Z,60.00
2019-03-30T05:25:36.623Z,60.10
2019-03-30T05:28:04.975Z,60.10
2019-03-30T05:30:33.253Z,60.10
2019-03-30T05:33:06.081Z,60.10
2019-03-30T05:35:31.899Z,60.20
2019-03-30T05:38:01.582Z,61.10
2019-03-30T05:40:30.019Z,60.30
2019-03-30T05:42:58.858Z,60.20
2019-03-30T05:45:27.115Z,60.20
2019-03-30T05:47:55.738Z,60.20
2019-03-30T05:50:24.407Z,60.20
2019-03-30T05:52:53.007Z,60.10
2019-03-30T05:55:21.663Z,60.10
2019-03-30T05:57:49.935Z,60.80
2019-03-30T06:00:19.836Z,60.00
2019-03-30T06:02:48.440Z,60.10
2019-03-30T06:05:17.052Z,60.20
2019-03-30T06:07:45.315Z,60.30
2019-03-30T06:10:13.585Z,60.30
2019-03-30T06:12:42.987Z,60.30
2019-03-30T06:15:11.568Z,60.30
2019-03-30T06:17:39.847Z,60.20
2019-03-30T06:20:08.158Z,60.10
2019-03-30T06:22:40.560Z,60.20
2019-03-30T06:25:06.867Z,60.20
2019-03-30T06:27:35.142Z,60.30
2019-03-30T06:30:17.104Z,60.30
2019-03-30T06:32:45.739Z,60.30
2019-03-30T06:35:14.382Z,60.40
2019-03-30T06:37:42.739Z,60.40
2019-03-30T06:40:11.297Z,60.30
2019-03-30T06:42:39.844Z,60.20
2019-03-30T06:45:08.223Z,60.00
2019-03-30T06:47:36.498Z,59.70
2019-03-30T06:50:06.885Z,59.30
2019-03-30T06:52:35.207Z,59.10
2019-03-30T06:55:04.610Z,58.60
2019-03-30T06:57:32.871Z,58.30
2019-03-30T07:00:01.155Z,58.10
2019-03-30T07:02:29.827Z,58.60
2019-03-30T07:04:58.121Z,57.60
2019-03-30T07:07:26.697Z,57.20
2019-03-30T07:09:55.378Z,57.20
2019-03-30T07:12:26.955Z,57.20
2019-03-30T07:14:55.227Z,57.00
2019-03-30T07:17:23.486Z,56.90
2019-03-30T07:19:53.547Z,56.50
2019-03-30T07:22:21.811Z,56.40
2019-03-30T07:24:50.095Z,55.60
2019-03-30T07:27:18.354Z,55.10
2019-03-30T07:29:46.683Z,55.50
2019-03-30T07:32:14.934Z,55.50
2019-03-30T07:34:43.615Z,55.20
2019-03-30T07:37:11.956Z,56.40
2019-03-30T07:39:40.577Z,57.00
2019-03-30T07:42:08.851Z,57.20
2019-03-30T07:44:37.440Z,59.10
2019-03-30T07:47:05.737Z,58.30
2019-03-30T07:49:34.291Z,57.50
2019-03-30T07:52:02.878Z,56.70
2019-03-30T07:54:31.146Z,56.50
2019-03-30T07:57:07.102Z,56.50
2019-03-30T07:59:29.695Z,56.40
2019-03-30T08:01:57.967Z,56.50
2019-03-30T08:04:28.627Z,56.60
2019-03-30T08:06:56.228Z,56.60
2019-03-30T08:09:24.497Z,56.70
2019-03-30T08:11:52.766Z,56.80
2019-03-30T08:14:21.374Z,57.20
2019-03-30T08:16:49.941Z,56.80
2019-03-30T08:19:21.647Z,56.70
2019-03-30T08:21:48.566Z,56.80
2019-03-30T08:24:17.096Z,56.80
2019-03-30T08:26:45.720Z,56.80
2019-03-30T08:29:14.703Z,56.80
2019-03-30T08:31:43.354Z,56.70
2019-03-30T08:34:11.975Z,56.70
2019-03-30T08:36:41.206Z,56.90
2019-03-30T08:39:09.492Z,57.00
2019-03-30T08:41:37.827Z,57.00
2019-03-30T08:44:06.410Z,57.00
2019-03-30T08:46:34.690Z,57.10
2019-03-30T08:49:03.508Z,57.10
2019-03-30T08:51:31.789Z,57.40
2019-03-30T08:54:00.339Z,57.50
2019-03-30T08:56:29.026Z,56.60
2019-03-30T08:58:57.630Z,56.30
2019-03-30T09:01:26.194Z,56.10
2019-03-30T09:03:54.482Z,56.60
2019-03-30T09:06:22.838Z,59.50
2019-03-30T09:08:51.477Z,60.30
2019-03-30T09:11:20.152Z,59.40
2019-03-30T09:13:48.984Z,58.50
2019-03-30T09:16:17.295Z,57.70
2019-03-30T09:18:45.879Z,57.30
2019-03-30T09:21:14.141Z,56.80
2019-03-30T09:23:42.763Z,56.10
2019-03-30T09:26:16.767Z,55.70
2019-03-30T09:28:45.658Z,55.60
2019-03-30T09:31:13.914Z,55.70
2019-03-30T09:33:42.531Z,55.90
2019-03-30T09:36:11.112Z,55.90
2019-03-30T09:38:39.406Z,56.10
2019-03-30T09:41:07.671Z,56.80
2019-03-30T09:43:37.487Z,56.20
2019-03-30T09:46:05.933Z,56.30
2019-03-30T09:48:34.210Z,56.40
2019-03-30T09:51:02.824Z,56.40
2019-03-30T09:53:31.103Z,56.60
2019-03-30T09:55:59.422Z,56.70
2019-03-30T09:58:27.743Z,56.70
2019-03-30T10:00:56.343Z,56.80
2019-03-30T10:03:24.611Z,56.80
2019-03-30T10:05:52.910Z,56.50
2019-03-30T10:08:21.564Z,56.40
2019-03-30T10:10:50.386Z,56.40
2019-03-30T10:13:18.985Z,56.40
2019-03-30T10:15:47.768Z,56.60
2019-03-30T10:18:16.331Z,56.60
2019-03-30T10:20:44.671Z,56.20
2019-03-30T10:23:12.931Z,56.00
2019-03-30T10:25:41.575Z,55.80
2019-03-30T10:28:10.055Z,55.70
2019-03-30T10:30:38.671Z,55.70
2019-03-30T10:33:07.215Z,55.70
2019-03-30T10:35:35.492Z,55.60
2019-03-30T10:38:03.755Z,55.30
2019-03-30T10:40:32.031Z,55.50
2019-03-30T10:43:00.646Z,55.80
2019-03-30T10:45:29.230Z,56.10
2019-03-30T10:47:57.528Z,56.40
2019-03-30T10:50:25.794Z,56.50
2019-03-30T10:52:54.064Z,56.50
2019-03-30T10:55:22.643Z,56.60
2019-03-30T10:57:51.239Z,57.20
2019-03-30T11:00:33.856Z,58.20
2019-03-30T11:03:02.426Z,57.70
2019-03-30T11:05:31.107Z,57.40
2019-03-30T11:07:59.383Z,57.40
2019-03-30T11:10:27.972Z,57.20
2019-03-30T11:12:56.434Z,57.30
2019-03-30T11:15:25.146Z,57.40
2019-03-30T11:17:53.727Z,57.50
2019-03-30T11:20:22.369Z,57.70
2019-03-30T11:22:51.005Z,57.70
2019-03-30T11:25:19.571Z,57.30
2019-03-30T11:27:47.882Z,57.50
2019-03-30T11:30:16.199Z,57.60
2019-03-30T11:32:44.544Z,58.50
2019-03-30T11:35:12.808Z,58.70
2019-03-30T11:37:41.365Z,58.70
2019-03-30T11:40:09.638Z,60.30
2019-03-30T11:42:37.979Z,62.20
2019-03-30T11:45:06.260Z,60.20
2019-03-30T11:47:34.534Z,59.70
2019-03-30T11:50:02.983Z,59.20
2019-03-30T11:52:31.259Z,60.00
2019-03-30T11:54:59.939Z,60.50
2019-03-30T11:57:28.286Z,61.70
2019-03-30T11:59:56.562Z,61.80
2019-03-30T12:02:28.129Z,62.90
2019-03-30T12:04:55.198Z,63.90
2019-03-30T12:07:23.488Z,64.10
2019-03-30T12:09:52.059Z,62.80
2019-03-30T12:12:20.340Z,62.40
2019-03-30T12:14:48.622Z,62.80
2019-03-30T12:17:16.895Z,62.30
2019-03-30T12:19:45.207Z,63.80
2019-03-30T12:22:13.481Z,63.10
2019-03-30T12:24:42.035Z,64.00
2019-03-30T12:27:10.299Z,62.80
2019-03-30T12:29:38.596Z,61.90
2019-03-30T12:32:07.230Z,61.00
2019-03-30T12:34:35.534Z,60.60
2019-03-30T12:37:03.828Z,60.90
2019-03-30T12:39:32.190Z,60.80
2019-03-30T12:42:00.818Z,61.20
2019-03-30T12:44:29.155Z,61.60
2019-03-30T12:46:57.769Z,62.20
2019-03-30T12:49:26.035Z,62.70
2019-03-30T12:51:54.938Z,63.70
2019-03-30T12:54:23.347Z,64.80
2019-03-30T12:56:51.618Z,64.20
2019-03-30T12:59:19.909Z,63.80
2019-03-30T13:01:48.472Z,64.20
2019-03-30T13:04:17.155Z,68.50
2019-03-30T13:06:45.726Z,67.50
2019-03-30T13:09:13.994Z,65.90
2019-03-30T13:11:42.577Z,65.20
2019-03-30T13:14:11.183Z,65.00
2019-03-30T13:16:39.470Z,64.50
2019-03-30T13:19:07.746Z,64.10
2019-03-30T13:21:36.305Z,63.90
2019-03-30T13:24:04.583Z,63.80
2019-03-30T13:26:33.172Z,63.30
2019-03-30T13:29:01.497Z,62.90
2019-03-30T13:31:31.438Z,62.60
2019-03-30T13:33:59.732Z,62.20
2019-03-30T13:36:41.437Z,62.10
2019-03-30T13:39:10.102Z,62.00
2019-03-30T13:41:38.380Z,61.90
2019-03-30T13:44:06.820Z,61.60
2019-03-30T13:46:35.468Z,61.20
2019-03-30T13:49:03.743Z,61.00
2019-03-30T13:51:32.327Z,61.90
2019-03-30T13:54:00.591Z,61.40
2019-03-30T13:56:29.187Z,60.80
2019-03-30T13:58:57.475Z,60.80
2019-03-30T14:01:25.778Z,60.60
2019-03-30T14:03:54.303Z,60.60
2019-03-30T14:06:22.588Z,60.50
2019-03-30T14:08:51.292Z,60.50
2019-03-30T14:11:19.575Z,60.40
2019-03-30T14:13:48.080Z,60.40
2019-03-30T14:16:16.635Z,60.60
2019-03-30T14:18:44.915Z,61.70
2019-03-30T14:21:13.294Z,62.00
2019-03-30T14:23:43.474Z,62.20
2019-03-30T14:26:11.626Z,62.50
2019-03-30T14:28:40.300Z,63.20
2019-03-30T14:31:08.590Z,61.40
2019-03-30T14:33:36.856Z,61.20
2019-03-30T14:36:05.131Z,61.00
2019-03-30T14:38:33.712Z,61.40
2019-03-30T14:41:03.767Z,60.80
2019-03-30T14:43:32.295Z,59.60
2019-03-30T14:46:00.567Z,58.90
2019-03-30T14:48:28.840Z,58.60
2019-03-30T14:50:57.436Z,59.80
2019-03-30T14:53:25.980Z,60.60
2019-03-30T14:55:54.718Z,60.10
2019-03-30T14:58:23.084Z,59.50
2019-03-30T15:00:51.963Z,60.00
2019-03-30T15:03:20.672Z,59.30
2019-03-30T15:05:49.024Z,59.40
2019-03-30T15:08:17.376Z,59.40
2019-03-30T15:10:45.651Z,59.30
2019-03-30T15:13:13.919Z,59.50
2019-03-30T15:15:42.195Z,59.40
2019-03-30T15:18:10.928Z,59.50
2019-03-30T15:20:39.538Z,59.50
2019-03-30T15:23:08.115Z,59.50
2019-03-30T15:25:36.784Z,59.50
2019-03-30T15:28:05.069Z,59.50
2019-03-30T15:30:33.783Z,59.50
2019-03-30T15:33:03.538Z,59.60
2019-03-30T15:35:32.071Z,59.60
2019-03-30T15:38:00.742Z,60.40
2019-03-30T15:40:29.435Z,59.70
2019-03-30T15:42:57.815Z,59.70
2019-03-30T15:45:26.085Z,59.70
2019-03-30T15:47:54.377Z,59.70
2019-03-30T15:50:22.936Z,59.80
2019-03-30T15:52:51.557Z,59.80
2019-03-30T15:55:20.134Z,59.80
2019-03-30T15:57:49.127Z,59.80
2019-03-30T16:00:17.400Z,59.90
2019-03-30T16:02:45.666Z,59.90
2019-03-30T16:05:15.726Z,59.90
2019-03-30T16:07:44.419Z,59.90
2019-03-30T16:10:13.085Z,59.90
2019-03-30T16:12:41.732Z,59.80
2019-03-30T16:15:10.319Z,59.70
2019-03-30T16:17:38.931Z,59.60
2019-03-30T16:20:07.936Z,59.60
2019-03-30T16:22:36.199Z,59.50
2019-03-30T16:25:06.624Z,59.60
2019-03-30T16:27:34.968Z,59.50
2019-03-30T16:30:04.883Z,59.50
2019-03-30T16:32:33.196Z,59.60
2019-03-30T16:35:01.880Z,59.70
2019-03-30T16:37:30.136Z,59.80
2019-03-30T16:39:58.741Z,59.60
2019-03-30T16:42:27.001Z,59.70
2019-03-30T16:44:55.304Z,59.70
2019-03-30T16:47:23.629Z,59.60
2019-03-30T16:49:51.982Z,59.60
2019-03-30T16:52:20.259Z,59.70
2019-03-30T16:54:48.570Z,59.80
2019-03-30T16:57:16.915Z,59.90
2019-03-30T16:59:45.467Z,59.90
2019-03-30T17:02:13.809Z,59.80
2019-03-30T17:04:42.138Z,59.90
2019-03-30T17:07:10.418Z,59.70
2019-03-30T17:09:38.848Z,59.70
2019-03-30T17:12:07.125Z,60.40
2019-03-30T17:14:35.434Z,59.90
2019-03-30T17:17:03.703Z,60.00
2019-03-30T17:19:31.977Z,60.00
2019-03-30T17:22:00.573Z,60.00
2019-03-30T17:24:29.178Z,60.00
2019-03-30T17:26:57.440Z,60.00
2019-03-30T17:29:25.711Z,60.10
2019-03-30T17:31:54.419Z,60.10
2019-03-30T17:34:22.702Z,60.30
2019-03-30T17:36:51.041Z,60.20
2019-03-30T17:39:19.344Z,60.10
2019-03-30T17:41:47.594Z,60.30
2019-03-30T17:44:16.190Z,60.30
2019-03-30T17:46:44.462Z,60.10
2019-03-30T17:49:13.079Z,60.20
2019-03-30T17:51:41.351Z,60.20
2019-03-30T17:54:09.621Z,60.00
2019-03-30T17:56:37.896Z,60.00
2019-03-30T17:59:06.176Z,60.00
2019-03-30T18:01:34.451Z,59.90
2019-03-30T18:04:02.804Z,60.30
2019-03-30T18:06:31.092Z,61.20
2019-03-30T18:08:59.457Z,61.60
2019-03-30T18:11:27.743Z,63.20
2019-03-30T18:13:56.026Z,62.00
2019-03-30T18:16:24.317Z,61.20
2019-03-30T18:18:52.611Z,60.50
2019-03-30T18:21:21.192Z,59.80
2019-03-30T18:23:49.459Z,60.40
2019-03-30T18:26:18.038Z,64.30
2019-03-30T18:28:46.634Z,64.70
2019-03-30T18:31:15.328Z,62.30
2019-03-30T18:33:43.599Z,60.80
2019-03-30T18:36:12.603Z,60.20
2019-03-30T18:38:41.160Z,60.10
2019-03-30T18:41:09.475Z,60.00
2019-03-30T18:43:38.043Z,60.00
2019-03-30T18:46:06.335Z,60.00
2019-03-30T18:48:34.600Z,60.00
2019-03-30T18:51:02.885Z,60.00
2019-03-30T18:53:31.155Z,59.90
2019-03-30T18:55:59.465Z,60.20
2019-03-30T18:58:40.995Z,60.30
2019-03-30T19:00:58.511Z,62.60
2019-03-30T19:03:26.818Z,64.20
2019-03-30T19:05:55.169Z,65.00
2019-03-30T19:08:23.580Z,65.60
2019-03-30T19:10:52.026Z,60.30
2019-03-30T19:13:20.340Z,47.10
2019-03-30T19:15:48.677Z,44.80
2019-03-30T19:18:17.256Z,44.00
2019-03-30T19:20:45.518Z,47.30
2019-03-30T19:23:13.817Z,47.40
2019-03-30T19:25:42.095Z,48.10
2019-03-30T19:28:10.395Z,50.90
2019-03-30T19:30:41.931Z,49.20
2019-03-30T19:33:09.427Z,49.20
2019-03-30T19:35:38.001Z,49.30
2019-03-30T19:38:06.711Z,49.50
2019-03-30T19:40:36.654Z,49.80
2019-03-30T19:43:04.969Z,50.40
2019-03-30T19:45:33.315Z,50.50
2019-03-30T19:48:01.591Z,50.70
2019-03-30T19:50:30.119Z,51.10
2019-03-30T19:52:58.413Z,51.20
2019-03-30T19:55:26.695Z,51.50
2019-03-30T19:57:55.295Z,51.90
2019-03-30T20:00:23.568Z,52.00
2019-03-30T20:02:51.859Z,52.20
2019-03-30T20:05:20.419Z,52.40
2019-03-30T20:07:49.196Z,52.40
2019-03-30T20:10:17.539Z,52.70
2019-03-30T20:12:45.822Z,52.80
2019-03-30T20:15:14.350Z,53.10
2019-03-30T20:17:42.931Z,53.10
2019-03-30T20:20:11.678Z,53.40
2019-03-30T20:22:39.956Z,53.60
2019-03-30T20:25:09.533Z,53.70
2019-03-30T20:27:37.802Z,54.10
2019-03-30T20:30:08.135Z,55.60
2019-03-30T20:32:36.572Z,56.40
2019-03-30T20:35:07.155Z,56.90
2019-03-30T20:37:35.423Z,56.80
2019-03-30T20:40:06.413Z,57.10
2019-03-30T20:42:34.691Z,56.10
2019-03-30T20:45:03.723Z,55.80
2019-03-30T20:47:32.113Z,55.90
2019-03-30T20:50:00.501Z,56.70
2019-03-30T20:52:29.012Z,56.00
2019-03-30T20:54:57.631Z,55.90
2019-03-30T20:57:26.040Z,55.90
2019-03-30T20:59:54.598Z,56.10
2019-03-30T21:02:24.135Z,56.00
2019-03-30T21:04:52.418Z,56.40
2019-03-30T21:07:21.098Z,56.20
2019-03-30T21:09:49.661Z,56.10
2019-03-30T21:12:18.270Z,56.20
2019-03-30T21:14:46.957Z,56.30
2019-03-30T21:17:15.299Z,56.40
2019-03-30T21:19:43.892Z,56.40
2019-03-30T21:22:12.475Z,56.40
2019-03-30T21:24:40.760Z,56.40
2019-03-30T21:27:09.097Z,56.30
2019-03-30T21:29:37.365Z,56.40
2019-03-30T21:32:05.658Z,56.40
2019-03-30T21:34:33.927Z,56.50
2019-03-30T21:37:02.203Z,56.50
2019-03-30T21:39:30.471Z,56.60
2019-03-30T21:41:58.753Z,56.60
2019-03-30T21:44:27.011Z,56.60
2019-03-30T21:46:55.282Z,56.70
2019-03-30T21:49:23.572Z,56.70
2019-03-30T21:51:52.220Z,56.60
2019-03-30T21:54:20.886Z,56.70
2019-03-30T21:56:49.488Z,56.70
2019-03-30T21:59:18.047Z,56.80
2019-03-30T22:01:46.322Z,56.80
2019-03-30T22:04:14.591Z,56.80
2019-03-30T22:06:42.872Z,56.80
2019-03-30T22:09:11.151Z,56.80
2019-03-30T22:11:39.432Z,56.80
2019-03-30T22:14:07.772Z,57.00
2019-03-30T22:16:36.426Z,57.10
2019-03-30T22:19:04.687Z,57.30
2019-03-30T22:21:33.291Z,58.40
2019-03-30T22:24:01.563Z,58.90
2019-03-30T22:26:29.842Z,59.10
2019-03-30T22:28:58.411Z,58.80
2019-03-30T22:31:26.983Z,58.50
2019-03-30T22:33:55.259Z,58.40
2019-03-30T22:36:23.871Z,58.20
2019-03-30T22:38:52.143Z,58.30
2019-03-30T22:41:20.412Z,58.30
2019-03-30T22:43:48.689Z,58.00
2019-03-30T22:46:16.948Z,57.90
2019-03-30T22:48:45.243Z,57.90
2019-03-30T22:51:13.566Z,57.90
2019-03-30T22:53:42.136Z,58.00
2019-03-30T22:56:10.427Z,58.00
2019-03-30T22:58:38.711Z,57.90
2019-03-30T23:01:08.646Z,57.90
2019-03-30T23:03:37.264Z,57.90
2019-03-30T23:06:05.590Z,57.90
2019-03-30T23:08:33.941Z,57.80
2019-03-30T23:11:02.242Z,57.80
2019-03-30T23:13:30.867Z,57.80
2019-03-30T23:15:59.168Z,57.80
2019-03-30T23:18:27.743Z,57.80
2019-03-30T23:20:56.006Z,57.80
2019-03-30T23:23:24.620Z,57.80
2019-03-30T23:25:53.324Z,57.90
2019-03-30T23:28:21.587Z,57.90
2019-03-30T23:30:54.414Z,57.80
2019-03-30T23:33:20.198Z,57.80
2019-03-30T23:35:48.460Z,57.80
2019-03-30T23:38:16.739Z,57.80
2019-03-30T23:40:45.026Z,57.80
2019-03-30T23:43:13.625Z,57.80
2019-03-30T23:45:41.973Z,57.80
2019-03-30T23:48:10.232Z,57.80
2019-03-30T23:50:38.550Z,57.80
2019-03-30T23:53:07.654Z,57.80
2019-03-30T23:55:38.898Z,57.70
2019-03-30T23:58:06.636Z,57.80
